Time;durP1;ratioP1;P1;durP2;ratioP2;P2;SDS_P1;SDS_P2;PMS_P1;PMS_P2;Temp;Humidity;BMP_temperature;BMP_pressure;BME280_temperature;BME280_humidity;BME280_pressure;Samples;Min_cycle;Max_cycle;Signal;HPM_P1;HPM_P2
2022/04/22 00:01:41;;;;;;;4.73;4.33;;;;;;;;;;5067562;28;20219;-78
2022/04/22 00:04:14;;;;;;;4.60;4.20;;;;;;;;;;5069564;28;20183;-78
2022/04/22 00:06:40;;;;;;;5.50;4.90;;;;;;;;;;5068157;28;20194;-78
2022/04/22 00:09:06;;;;;;;4.23;3.93;;;;;;;;;;5084657;28;20184;-79
2022/04/22 00:11:32;;;;;;;4.83;4.40;;;;;;;;;;5071534;28;20175;-77
2022/04/22 00:14:06;;;;;;;5.27;4.77;;;;;;;;;;5091673;28;20508;-79
2022/04/22 00:16:33;;;;;;;5.57;5.00;;;;;;;;;;5070593;28;20188;-80
2022/04/22 00:18:59;;;;;;;5.00;4.60;;;;;;;;;;5072633;28;20630;-77
2022/04/22 00:21:28;;;;;;;4.93;4.53;;;;;;;;;;5072018;28;20669;-79
2022/04/22 00:23:57;;;;;;;5.13;4.73;;;;;;;;;;5072025;28;20229;-79
2022/04/22 00:26:24;;;;;;;5.27;4.87;;;;;;;;;;5071494;28;21993;-79
2022/04/22 00:28:53;;;;;;;5.23;4.83;;;;;;;;;;5087938;28;20257;-80
2022/04/22 00:31:19;;;;;;;5.33;4.83;;;;;;;;;;5071839;28;20191;-78
2022/04/22 00:34:25;;;;;;;5.33;4.83;;;;;;;;;;5091981;28;20260;-83
2022/04/22 00:36:52;;;;;;;5.10;4.60;;;;;;;;;;5071897;28;20183;-79
2022/04/22 00:39:18;;;;;;;5.30;4.90;;;;;;;;;;5073754;28;20679;-78
2022/04/22 00:41:44;;;;;;;5.07;4.67;;;;;;;;;;5072048;28;20274;-78
2022/04/22 00:44:11;;;;;;;4.97;4.57;;;;;;;;;;5073465;28;20543;-80
2022/04/22 00:46:43;;;;;;;5.30;4.90;;;;;;;;;;5071055;28;20227;-78
2022/04/22 00:49:09;;;;;;;4.90;4.37;;;;;;;;;;5069674;28;20233;-79
2022/04/22 00:51:35;;;;;;;4.80;4.33;;;;;;;;;;5068394;28;20185;-79
2022/04/22 00:54:03;;;;;;;5.57;5.07;;;;;;;;;;5088422;28;20179;-78
2022/04/22 00:56:29;;;;;;;5.53;5.13;;;;;;;;;;5071366;28;20646;-78
2022/04/22 00:58:57;;;;;;;5.83;5.27;;;;;;;;;;5072342;28;20190;-79
2022/04/22 01:01:32;;;;;;;5.90;5.27;;;;;;;;;;5073748;28;20202;-82
2022/04/22 01:12:13;;;;;;;4.97;4.50;;;;;;;;;;5089622;28;20271;-78
2022/04/22 01:15:07;;;;;;;5.40;4.90;;;;;;;;;;5089531;28;20544;-79
2022/04/22 01:17:34;;;;;;;5.23;4.80;;;;;;;;;;5068713;28;20581;-78
2022/04/22 01:20:00;;;;;;;5.10;4.70;;;;;;;;;;5067241;28;20518;-79
2022/04/22 01:22:27;;;;;;;5.20;4.80;;;;;;;;;;5068375;28;20678;-79
2022/04/22 01:24:56;;;;;;;5.20;4.73;;;;;;;;;;5072612;28;20320;-81
2022/04/22 01:27:23;;;;;;;5.03;4.63;;;;;;;;;;5071025;28;20204;-79
2022/04/22 01:29:50;;;;;;;5.00;4.50;;;;;;;;;;5067859;28;20212;-78
2022/04/22 01:32:16;;;;;;;5.87;4.57;;;;;;;;;;5068834;28;20181;-79
2022/04/22 01:34:42;;;;;;;4.30;4.00;;;;;;;;;;5067085;28;20194;-79
2022/04/22 01:37:08;;;;;;;4.87;4.47;;;;;;;;;;5067789;28;20224;-78
2022/04/22 01:39:34;;;;;;;6.87;4.90;;;;;;;;;;5068090;28;20180;-78
2022/04/22 01:42:00;;;;;;;6.17;4.40;;;;;;;;;;5068173;28;20180;-79
2022/04/22 01:44:26;;;;;;;4.53;4.17;;;;;;;;;;5066574;28;20195;-78
2022/04/22 01:46:53;;;;;;;4.77;4.37;;;;;;;;;;5066324;28;20205;-78
2022/04/22 01:49:19;;;;;;;4.60;4.30;;;;;;;;;;5058887;28;20669;-82
2022/04/22 01:51:45;;;;;;;4.67;4.30;;;;;;;;;;5067119;28;20188;-78
2022/04/22 01:54:12;;;;;;;5.80;4.20;;;;;;;;;;5066366;28;20185;-79
2022/04/22 01:56:38;;;;;;;5.03;4.63;;;;;;;;;;5066715;28;20184;-79
2022/04/22 01:59:04;;;;;;;5.50;5.00;;;;;;;;;;5066078;28;20181;-78
2022/04/22 02:01:30;;;;;;;4.77;4.37;;;;;;;;;;5065915;28;20279;-79
2022/04/22 02:03:56;;;;;;;5.03;4.63;;;;;;;;;;5066651;28;20263;-79
2022/04/22 02:06:22;;;;;;;5.33;4.83;;;;;;;;;;5067124;28;20391;-78
2022/04/22 02:08:48;;;;;;;5.57;5.10;;;;;;;;;;5068346;28;20180;-77
2022/04/22 02:11:15;;;;;;;4.30;3.90;;;;;;;;;;5068048;28;20184;-79
2022/04/22 02:13:41;;;;;;;5.03;4.63;;;;;;;;;;5077063;28;20250;-79
2022/04/22 02:16:08;;;;;;;4.80;4.40;;;;;;;;;;5067783;28;20181;-78
2022/04/22 02:18:36;;;;;;;5.00;4.50;;;;;;;;;;5082125;28;20188;-80
2022/04/22 02:21:03;;;;;;;5.33;4.83;;;;;;;;;;5061785;28;20728;-77
2022/04/22 02:23:29;;;;;;;5.37;4.87;;;;;;;;;;5083745;28;20284;-78
2022/04/22 02:25:55;;;;;;;5.23;4.83;;;;;;;;;;5067090;28;20326;-77
2022/04/22 02:28:34;;;;;;;5.13;4.73;;;;;;;;;;5083339;28;20204;-78
2022/04/22 02:31:09;;;;;;;5.50;5.00;;;;;;;;;;5060360;28;20220;-78
2022/04/22 02:33:36;;;;;;;5.07;4.57;;;;;;;;;;5066057;28;20191;-78
2022/04/22 02:36:03;;;;;;;5.00;4.50;;;;;;;;;;5067736;28;20184;-79
2022/04/22 02:38:30;;;;;;;4.90;4.50;;;;;;;;;;5076139;28;20199;-79
2022/04/22 02:46:27;;;;;;;5.40;5.00;;;;;;;;;;5065174;28;20253;-78
2022/04/22 02:48:55;;;;;;;5.17;4.77;;;;;;;;;;5065710;28;20173;-78
2022/04/22 02:51:21;;;;;;;5.87;5.43;;;;;;;;;;5068149;28;20538;-79
2022/04/22 02:53:48;;;;;;;6.33;5.73;;;;;;;;;;5066826;28;20615;-79
2022/04/22 02:56:15;;;;;;;6.03;5.53;;;;;;;;;;5065035;28;20168;-79
2022/04/22 02:58:42;;;;;;;4.63;4.30;;;;;;;;;;5065818;28;20252;-78
2022/04/22 03:01:08;;;;;;;8.13;7.43;;;;;;;;;;5065283;28;20619;-79
2022/04/22 03:03:34;;;;;;;6.43;5.83;;;;;;;;;;5082212;28;20173;-79
2022/04/22 03:06:00;;;;;;;6.37;5.63;;;;;;;;;;5064874;28;20177;-78
2022/04/22 03:08:26;;;;;;;6.33;5.77;;;;;;;;;;5080293;28;20239;-78
2022/04/22 03:10:52;;;;;;;6.53;5.97;;;;;;;;;;5063088;28;20962;-78
2022/04/22 03:13:18;;;;;;;6.10;5.50;;;;;;;;;;5066301;28;20185;-77
2022/04/22 03:15:44;;;;;;;6.10;5.60;;;;;;;;;;5065526;28;20183;-78
2022/04/22 03:18:11;;;;;;;11.93;11.13;;;;;;;;;;5065567;28;20180;-77
2022/04/22 03:20:37;;;;;;;5.97;5.37;;;;;;;;;;5064610;28;20716;-78
2022/04/22 03:23:03;;;;;;;6.53;5.93;;;;;;;;;;5065521;28;20180;-78
2022/04/22 03:25:29;;;;;;;6.13;5.60;;;;;;;;;;5064469;28;20212;-78
2022/04/22 03:27:55;;;;;;;6.77;6.13;;;;;;;;;;5064529;28;20200;-78
2022/04/22 03:30:22;;;;;;;5.53;5.07;;;;;;;;;;5065741;28;20714;-78
2022/04/22 03:32:48;;;;;;;6.63;6.03;;;;;;;;;;5065618;28;20282;-79
2022/04/22 03:35:14;;;;;;;6.13;5.53;;;;;;;;;;5065184;28;20191;-77
2022/04/22 03:37:42;;;;;;;6.37;5.77;;;;;;;;;;5064933;28;20191;-79
2022/04/22 03:40:10;;;;;;;9.70;9.03;;;;;;;;;;5071990;28;20197;-78
2022/04/22 03:42:36;;;;;;;6.80;6.20;;;;;;;;;;5065413;28;20241;-77
2022/04/22 03:45:05;;;;;;;6.23;5.73;;;;;;;;;;5068578;28;20740;-77
2022/04/22 03:47:31;;;;;;;5.77;5.17;;;;;;;;;;5070069;28;20660;-78
2022/04/22 03:49:58;;;;;;;6.73;6.03;;;;;;;;;;5069864;28;20199;-78
2022/04/22 03:52:24;;;;;;;7.17;6.47;;;;;;;;;;5068178;28;20580;-78
2022/04/22 03:54:50;;;;;;;6.37;5.87;;;;;;;;;;5069579;28;20627;-78
2022/04/22 04:00:01;;;;;;;6.67;6.03;;;;;;;;;;5071754;28;20231;-78
2022/04/22 04:02:28;;;;;;;7.23;6.53;;;;;;;;;;5066628;28;20977;-77
2022/04/22 04:04:54;;;;;;;7.00;6.30;;;;;;;;;;5069026;28;20185;-78
2022/04/22 04:07:20;;;;;;;11.07;10.23;;;;;;;;;;5069053;28;20734;-76
2022/04/22 04:18:00;;;;;;;6.93;6.23;;;;;;;;;;5069821;28;20282;-79
2022/04/22 04:23:14;;;;;;;12.40;11.43;;;;;;;;;;5070957;28;20732;-77
2022/04/22 04:25:41;;;;;;;7.70;6.70;;;;;;;;;;5066216;28;20204;-78
2022/04/22 04:28:10;;;;;;;6.57;5.97;;;;;;;;;;5068881;28;20406;-79
2022/04/22 04:30:40;;;;;;;6.97;5.50;;;;;;;;;;5068423;28;20658;-78
2022/04/22 04:33:07;;;;;;;8.97;8.23;;;;;;;;;;5084215;28;20222;-78
2022/04/22 04:35:34;;;;;;;7.93;6.97;;;;;;;;;;5070119;28;20397;-78
2022/04/22 04:38:01;;;;;;;6.83;6.13;;;;;;;;;;5068742;28;20618;-77
2022/04/22 04:40:27;;;;;;;7.87;6.40;;;;;;;;;;5068981;28;20208;-78
2022/04/22 04:42:53;;;;;;;8.30;6.50;;;;;;;;;;5066708;28;20295;-80
2022/04/22 04:45:20;;;;;;;6.30;5.70;;;;;;;;;;5067988;28;20258;-78
2022/04/22 04:47:46;;;;;;;7.93;7.10;;;;;;;;;;5068046;28;20666;-78
2022/04/22 04:50:12;;;;;;;6.77;6.17;;;;;;;;;;5064997;28;20637;-78
2022/04/22 04:52:40;;;;;;;8.73;7.90;;;;;;;;;;5065975;28;20177;-78
2022/04/22 04:55:08;;;;;;;7.03;6.00;;;;;;;;;;5066999;28;20181;-79
2022/04/22 04:57:34;;;;;;;8.60;7.47;;;;;;;;;;5063980;28;20180;-78
2022/04/22 05:00:01;;;;;;;7.70;7.00;;;;;;;;;;5067508;28;20618;-78
2022/04/22 05:02:27;;;;;;;7.53;6.73;;;;;;;;;;5067722;28;20188;-78
2022/04/22 05:04:53;;;;;;;7.40;6.70;;;;;;;;;;5066976;28;20187;-77
2022/04/22 05:07:20;;;;;;;7.90;6.80;;;;;;;;;;5069440;28;20200;-79
2022/04/22 05:09:46;;;;;;;9.13;7.23;;;;;;;;;;5081825;28;20176;-78
2022/04/22 05:12:12;;;;;;;8.13;7.33;;;;;;;;;;5067588;28;20274;-79
2022/04/22 05:14:38;;;;;;;8.80;7.20;;;;;;;;;;5057495;28;20259;-78
2022/04/22 05:17:05;;;;;;;8.00;7.20;;;;;;;;;;5083350;28;20228;-78
2022/04/22 05:19:31;;;;;;;9.40;7.90;;;;;;;;;;5061931;28;20176;-78
2022/04/22 05:21:57;;;;;;;8.20;7.40;;;;;;;;;;5068118;28;20635;-78
2022/04/22 05:24:23;;;;;;;8.63;7.73;;;;;;;;;;5067864;28;20390;-77
2022/04/22 05:26:49;;;;;;;7.67;6.87;;;;;;;;;;5067665;28;20635;-78
2022/04/22 05:34:44;;;;;;;8.93;8.03;;;;;;;;;;5042082;28;20191;-78
2022/04/22 05:37:10;;;;;;;8.83;7.93;;;;;;;;;;5046754;28;20220;-79
2022/04/22 05:39:36;;;;;;;10.80;9.80;;;;;;;;;;5046387;28;20409;-79
2022/04/22 05:42:02;;;;;;;9.10;8.20;;;;;;;;;;5047633;28;20173;-80
2022/04/22 05:44:29;;;;;;;9.90;7.60;;;;;;;;;;5044671;28;20192;-79
2022/04/22 05:46:55;;;;;;;10.83;9.30;;;;;;;;;;5048611;28;20251;-79
2022/04/22 05:49:21;;;;;;;11.93;9.17;;;;;;;;;;5041307;28;20242;-79
2022/04/22 05:51:47;;;;;;;12.00;9.03;;;;;;;;;;5049218;28;20174;-78
2022/04/22 05:54:13;;;;;;;10.98;9.98;;;;;;;;;;5047468;28;20460;-79
2022/04/22 05:56:39;;;;;;;10.00;9.00;;;;;;;;;;5046483;28;20185;-79
2022/04/22 05:59:05;;;;;;;9.40;8.50;;;;;;;;;;5047252;28;20177;-78
2022/04/22 06:01:31;;;;;;;10.63;9.63;;;;;;;;;;5046679;28;20201;-78
2022/04/22 06:03:57;;;;;;;10.80;9.80;;;;;;;;;;5046676;28;20193;-79
2022/04/22 06:06:23;;;;;;;10.65;9.65;;;;;;;;;;5044610;28;20185;-79
2022/04/22 06:11:34;;;;;;;10.87;9.77;;;;;;;;;;5049610;28;20241;-78
2022/04/22 06:14:00;;;;;;;9.77;8.87;;;;;;;;;;5043670;28;20213;-81
2022/04/22 06:16:26;;;;;;;12.60;11.23;;;;;;;;;;5047669;28;20611;-82
2022/04/22 06:18:52;;;;;;;12.30;11.17;;;;;;;;;;5044913;28;20181;-78
2022/04/22 06:21:18;;;;;;;12.20;11.00;;;;;;;;;;5047171;28;20196;-79
2022/04/22 06:23:52;;;;;;;12.57;11.27;;;;;;;;;;5048385;28;20189;-81
2022/04/22 06:26:27;;;;;;;11.97;10.77;;;;;;;;;;5047848;28;20661;-82
2022/04/22 06:28:53;;;;;;;12.20;10.67;;;;;;;;;;5050372;28;20242;-83
2022/04/22 06:31:22;;;;;;;12.53;11.23;;;;;;;;;;5071528;28;20616;-82
2022/04/22 06:33:49;;;;;;;11.30;10.20;;;;;;;;;;5088059;28;20194;-82
2022/04/22 06:36:19;;;;;;;12.63;11.33;;;;;;;;;;5070592;28;20188;-78
2022/04/22 06:38:57;;;;;;;11.60;10.50;;;;;;;;;;5071857;28;20192;-79
2022/04/22 06:47:12;;;;;;;12.23;10.47;;;;;;;;;;5088377;28;20585;-82
2022/04/22 06:49:42;;;;;;;11.03;10.03;;;;;;;;;;5090598;28;20180;-80
2022/04/22 06:52:09;;;;;;;12.80;10.50;;;;;;;;;;5071430;28;20229;-84
2022/04/22 06:54:36;;;;;;;11.23;10.00;;;;;;;;;;5067544;28;20668;-79
2022/04/22 06:57:03;;;;;;;11.30;10.10;;;;;;;;;;5071278;28;20187;-80
2022/04/22 06:59:31;;;;;;;10.67;9.63;;;;;;;;;;5068075;28;20202;-80
2022/04/22 07:01:57;;;;;;;10.93;9.83;;;;;;;;;;5063390;28;20286;-79
2022/04/22 07:04:24;;;;;;;11.50;10.03;;;;;;;;;;5070212;28;20183;-81
2022/04/22 07:06:51;;;;;;;10.87;9.83;;;;;;;;;;5071254;28;20302;-79
2022/04/22 07:09:17;;;;;;;11.03;9.93;;;;;;;;;;5066962;28;20259;-82
2022/04/22 07:11:44;;;;;;;11.47;10.27;;;;;;;;;;5071158;28;20177;-80
2022/04/22 07:14:11;;;;;;;11.80;10.70;;;;;;;;;;5071595;28;20179;-77
2022/04/22 07:16:44;;;;;;;10.57;9.50;;;;;;;;;;5086712;28;20544;-86
2022/04/22 07:19:10;;;;;;;11.30;10.10;;;;;;;;;;5064655;28;20180;-80
2022/04/22 07:21:37;;;;;;;10.73;9.73;;;;;;;;;;5067896;28;20252;-86
2022/04/22 07:24:06;;;;;;;11.93;10.10;;;;;;;;;;5067179;28;20199;-80
2022/04/22 07:26:32;;;;;;;11.30;10.30;;;;;;;;;;5066517;28;20200;-82
2022/04/22 07:29:03;;;;;;;11.83;10.20;;;;;;;;;;5071466;28;20492;-80
2022/04/22 07:31:31;;;;;;;11.77;10.63;;;;;;;;;;5069557;28;20227;-81
2022/04/22 07:33:58;;;;;;;11.13;10.13;;;;;;;;;;5065667;28;20232;-81
2022/04/22 07:36:24;;;;;;;10.67;9.57;;;;;;;;;;5069971;28;20171;-80
2022/04/22 07:38:50;;;;;;;10.07;9.17;;;;;;;;;;5063149;28;20683;-84
2022/04/22 07:41:18;;;;;;;10.73;9.63;;;;;;;;;;5070909;28;20283;-83
2022/04/22 07:46:48;;;;;;;9.80;8.90;;;;;;;;;;5092206;28;20194;-84
2022/04/22 07:49:15;;;;;;;10.27;9.27;;;;;;;;;;5073266;28;20220;-84
2022/04/22 07:51:41;;;;;;;8.90;8.10;;;;;;;;;;5072111;28;20284;-84
2022/04/22 07:54:14;;;;;;;10.03;9.03;;;;;;;;;;5072603;28;20256;-82
2022/04/22 07:56:41;;;;;;;9.57;8.70;;;;;;;;;;5083540;28;20221;-85
2022/04/22 07:59:08;;;;;;;11.43;9.07;;;;;;;;;;5073850;28;20276;-83
2022/04/22 08:01:34;;;;;;;9.77;8.77;;;;;;;;;;5089692;28;20182;-85
2022/04/22 08:04:01;;;;;;;10.30;9.40;;;;;;;;;;5071968;28;20420;-84
2022/04/22 08:06:27;;;;;;;9.95;9.10;;;;;;;;;;5073148;28;20462;-84
2022/04/22 08:08:57;;;;;;;10.55;9.65;;;;;;;;;;5073504;28;20698;-84
2022/04/22 08:11:23;;;;;;;9.57;8.77;;;;;;;;;;5091370;28;21082;-83
2022/04/22 08:13:49;;;;;;;10.02;9.18;;;;;;;;;;5071645;28;20463;-84
2022/04/22 08:16:15;;;;;;;9.33;8.53;;;;;;;;;;5071501;28;20402;-82
2022/04/22 08:18:41;;;;;;;9.88;9.07;;;;;;;;;;5070975;28;20546;-84
2022/04/22 08:21:08;;;;;;;8.77;8.03;;;;;;;;;;5073436;28;20201;-84
2022/04/22 08:23:35;;;;;;;8.73;7.90;;;;;;;;;;5070683;28;20255;-84
2022/04/22 08:26:01;;;;;;;8.67;7.87;;;;;;;;;;5084202;28;20662;-84
2022/04/22 08:28:27;;;;;;;7.77;7.07;;;;;;;;;;5072457;28;20486;-84
2022/04/22 08:30:53;;;;;;;8.60;7.90;;;;;;;;;;5076364;28;20642;-84
2022/04/22 08:33:20;;;;;;;8.43;7.70;;;;;;;;;;5077879;28;20183;-84
2022/04/22 08:35:46;;;;;;;8.03;6.87;;;;;;;;;;5073888;28;20176;-87
2022/04/22 08:38:12;;;;;;;8.50;7.70;;;;;;;;;;5077048;28;20234;-86
2022/04/22 08:40:38;;;;;;;8.40;7.60;;;;;;;;;;5076022;28;20206;-85
2022/04/22 08:43:06;;;;;;;8.03;7.33;;;;;;;;;;5072297;28;20218;-84
2022/04/22 08:45:33;;;;;;;11.77;8.53;;;;;;;;;;5072940;28;20172;-83
2022/04/22 08:50:45;;;;;;;8.83;7.93;;;;;;;;;;5092713;28;20298;-83
2022/04/22 08:53:16;;;;;;;8.10;7.40;;;;;;;;;;5075772;28;20865;-83
2022/04/22 08:55:43;;;;;;;7.80;7.10;;;;;;;;;;5075344;28;20176;-82
2022/04/22 08:58:10;;;;;;;8.17;7.37;;;;;;;;;;5092776;28;20184;-82
2022/04/22 09:00:41;;;;;;;8.23;7.43;;;;;;;;;;5077338;28;20517;-83
2022/04/22 09:03:09;;;;;;;8.13;7.43;;;;;;;;;;5074685;28;20280;-81
2022/04/22 09:05:35;;;;;;;8.70;7.83;;;;;;;;;;5075752;28;20659;-81
2022/04/22 09:08:08;;;;;;;9.13;8.13;;;;;;;;;;5074347;28;20645;-81
2022/04/22 09:10:38;;;;;;;8.33;7.63;;;;;;;;;;5069425;28;20237;-81
2022/04/22 09:13:24;;;;;;;9.73;8.73;;;;;;;;;;5076427;28;20180;-83
2022/04/22 09:15:55;;;;;;;10.53;7.67;;;;;;;;;;5075604;28;20266;-82
2022/04/22 09:19:18;;;;;;;9.23;8.07;;;;;;;;;;5076115;28;20261;-83
2022/04/22 09:21:25;;;;;;;8.70;7.90;;;;;;;;;;5082236;28;20199;-81
2022/04/22 09:23:53;;;;;;;10.77;8.13;;;;;;;;;;5094646;28;20176;-82
2022/04/22 09:26:30;;;;;;;8.80;7.90;;;;;;;;;;5076239;28;20230;-81
2022/04/22 09:29:00;;;;;;;10.43;7.80;;;;;;;;;;5076095;28;20179;-82
2022/04/22 09:31:27;;;;;;;9.83;8.00;;;;;;;;;;5094539;28;20194;-83
2022/04/22 09:33:53;;;;;;;8.57;7.73;;;;;;;;;;5073813;28;20367;-82
2022/04/22 09:45:08;;;;;;;8.87;8.07;;;;;;;;;;5091373;28;20191;-80
2022/04/22 09:47:36;;;;;;;7.47;6.77;;;;;;;;;;5066609;28;20287;-81
2022/04/22 09:50:05;;;;;;;8.80;7.83;;;;;;;;;;5068558;28;20176;-81
2022/04/22 09:52:34;;;;;;;8.33;7.53;;;;;;;;;;5073222;28;20180;-82
2022/04/22 09:55:05;;;;;;;8.67;7.77;;;;;;;;;;5075611;28;20204;-82
2022/04/22 09:57:52;;;;;;;10.77;8.70;;;;;;;;;;5075205;28;20671;-83
2022/04/22 10:00:19;;;;;;;8.80;7.90;;;;;;;;;;5077567;28;20217;-84
2022/04/22 10:02:50;;;;;;;10.70;9.70;;;;;;;;;;5074538;28;20441;-82
2022/04/22 10:05:17;;;;;;;9.83;8.83;;;;;;;;;;5069649;28;20185;-82
2022/04/22 10:07:43;;;;;;;9.57;8.67;;;;;;;;;;5077422;28;20200;-82
2022/04/22 10:10:11;;;;;;;9.47;8.63;;;;;;;;;;5073561;28;20211;-81
2022/04/22 10:12:37;;;;;;;9.63;8.73;;;;;;;;;;5074816;28;20176;-82
2022/04/22 10:15:04;;;;;;;10.23;8.57;;;;;;;;;;5073705;28;20180;-84
2022/04/22 10:17:30;;;;;;;8.93;8.07;;;;;;;;;;5075259;28;20725;-82
2022/04/22 10:19:59;;;;;;;8.63;7.73;;;;;;;;;;5073094;28;20191;-84
2022/04/22 10:22:26;;;;;;;9.47;8.67;;;;;;;;;;5071281;28;20184;-84
2022/04/22 10:24:54;;;;;;;9.03;8.30;;;;;;;;;;5090393;28;20187;-83
2022/04/22 10:27:21;;;;;;;8.97;8.23;;;;;;;;;;5074572;28;20212;-85
2022/04/22 10:29:47;;;;;;;9.53;8.63;;;;;;;;;;5071572;28;20239;-86
2022/04/22 10:32:14;;;;;;;9.40;8.50;;;;;;;;;;5056125;28;20181;-87
2022/04/22 10:34:44;;;;;;;8.40;7.60;;;;;;;;;;5070700;28;20188;-86
2022/04/22 10:37:18;;;;;;;8.53;7.67;;;;;;;;;;5073288;28;20245;-82
2022/04/22 10:39:48;;;;;;;8.70;7.77;;;;;;;;;;5056630;28;20200;-86
2022/04/22 10:42:15;;;;;;;10.63;7.50;;;;;;;;;;5065806;28;20215;-86
2022/04/22 10:47:39;;;;;;;9.43;8.57;;;;;;;;;;5076647;28;20267;-86
2022/04/22 10:50:25;;;;;;;7.43;6.73;;;;;;;;;;5073554;28;20654;-85
2022/04/22 10:53:02;;;;;;;7.80;7.00;;;;;;;;;;5067244;28;20191;-82
2022/04/22 10:55:28;;;;;;;7.70;7.00;;;;;;;;;;5076460;28;20245;-83
2022/04/22 10:58:13;;;;;;;8.50;7.20;;;;;;;;;;5070279;28;20197;-82
2022/04/22 11:00:42;;;;;;;8.00;7.20;;;;;;;;;;5068353;28;20237;-82
2022/04/22 11:03:13;;;;;;;7.33;6.63;;;;;;;;;;5064896;28;20325;-82
2022/04/22 11:05:43;;;;;;;7.43;6.70;;;;;;;;;;5053302;28;20184;-82
2022/04/22 11:08:16;;;;;;;7.63;6.93;;;;;;;;;;5070233;28;20204;-82
2022/04/22 11:10:49;;;;;;;6.87;6.23;;;;;;;;;;5070063;28;20270;-82
2022/04/22 11:13:33;;;;;;;10.53;6.83;;;;;;;;;;5068134;28;20667;-82
2022/04/22 11:16:08;;;;;;;8.57;5.87;;;;;;;;;;5068721;28;20674;-82
2022/04/22 11:18:41;;;;;;;12.87;8.17;;;;;;;;;;5066941;28;20185;-82
2022/04/22 11:21:15;;;;;;;5.57;5.17;;;;;;;;;;5046962;28;20192;-83
2022/04/22 11:23:44;;;;;;;7.83;6.37;;;;;;;;;;5066680;28;20197;-83
2022/04/22 11:26:12;;;;;;;6.40;5.80;;;;;;;;;;5067973;28;20684;-84
2022/04/22 11:28:40;;;;;;;6.57;5.73;;;;;;;;;;5069248;28;20201;-82
2022/04/22 11:31:08;;;;;;;6.67;6.07;;;;;;;;;;5047869;28;20223;-81
2022/04/22 11:33:54;;;;;;;6.03;5.40;;;;;;;;;;5049307;28;20178;-82
2022/04/22 11:36:21;;;;;;;6.37;5.77;;;;;;;;;;5071294;28;20181;-84
2022/04/22 11:38:51;;;;;;;6.07;5.47;;;;;;;;;;5069430;28;20340;-85
2022/04/22 11:41:18;;;;;;;5.83;5.33;;;;;;;;;;5069930;28;20185;-87
2022/04/22 11:43:45;;;;;;;6.40;5.80;;;;;;;;;;5069498;28;20626;-86
2022/04/22 11:46:12;;;;;;;5.37;4.87;;;;;;;;;;5047158;28;20234;-83
2022/04/22 11:48:49;;;;;;;10.97;6.40;;;;;;;;;;5047242;28;20682;-82
2022/04/22 11:51:16;;;;;;;11.17;6.70;;;;;;;;;;5041449;28;20223;-85
2022/04/22 11:53:46;;;;;;;9.23;6.07;;;;;;;;;;5051645;28;20305;-85
2022/04/22 11:56:16;;;;;;;11.43;6.70;;;;;;;;;;5069894;28;20249;-85
2022/04/22 11:58:42;;;;;;;10.47;6.97;;;;;;;;;;5053719;28;20273;-86
2022/04/22 12:06:42;;;;;;;135.30;120.47;;;;;;;;;;5068984;28;20190;-87
2022/04/22 12:09:08;;;;;;;127.57;114.73;;;;;;;;;;5074692;28;20190;-85
2022/04/22 12:11:42;;;;;;;161.50;144.30;;;;;;;;;;5074334;28;21065;-85
2022/04/22 12:14:09;;;;;;;126.17;112.97;;;;;;;;;;5056610;28;20180;-84
2022/04/22 12:16:35;;;;;;;75.90;68.23;;;;;;;;;;5057496;28;20176;-85
2022/04/22 12:19:01;;;;;;;34.53;30.70;;;;;;;;;;5056497;28;20196;-88
2022/04/22 12:21:31;;;;;;;29.67;26.77;;;;;;;;;;5059815;28;20180;-85
2022/04/22 12:24:04;;;;;;;16.43;14.80;;;;;;;;;;5054206;28;20187;-88
2022/04/22 12:26:33;;;;;;;13.73;11.13;;;;;;;;;;5069039;28;20691;-88
2022/04/22 12:29:08;;;;;;;10.07;9.07;;;;;;;;;;5050756;28;20204;-85
2022/04/22 12:31:34;;;;;;;8.80;8.00;;;;;;;;;;5060080;28;20183;-85
2022/04/22 12:34:02;;;;;;;8.57;7.77;;;;;;;;;;5055562;28;20180;-85
2022/04/22 12:36:28;;;;;;;8.97;8.03;;;;;;;;;;5056335;28;20180;-83
2022/04/22 12:38:54;;;;;;;8.43;6.73;;;;;;;;;;5074594;28;20180;-83
2022/04/22 12:41:25;;;;;;;8.13;7.43;;;;;;;;;;5057426;28;20186;-86
2022/04/22 12:43:55;;;;;;;7.53;6.83;;;;;;;;;;5055933;28;20199;-86
2022/04/22 12:52:12;;;;;;;9.53;7.43;;;;;;;;;;5072121;28;20258;-86
2022/04/22 12:54:41;;;;;;;8.83;7.57;;;;;;;;;;5068600;28;20236;-86
2022/04/22 12:57:10;;;;;;;7.73;7.07;;;;;;;;;;5072563;28;20196;-87
2022/04/22 12:59:55;;;;;;;8.50;7.70;;;;;;;;;;5075425;28;20181;-88
2022/04/22 13:02:28;;;;;;;8.87;8.07;;;;;;;;;;5055281;28;20184;-87
2022/04/22 13:04:58;;;;;;;15.00;9.60;;;;;;;;;;5066832;28;20223;-86
2022/04/22 13:07:25;;;;;;;9.23;8.40;;;;;;;;;;5060572;28;20211;-86
2022/04/22 13:09:51;;;;;;;8.97;8.17;;;;;;;;;;5066093;28;20195;-86
2022/04/22 13:12:18;;;;;;;8.57;7.77;;;;;;;;;;5060178;28;20279;-83
2022/04/22 13:14:44;;;;;;;8.53;7.70;;;;;;;;;;5053036;28;20176;-90
2022/04/22 13:17:20;;;;;;;10.00;7.67;;;;;;;;;;5058662;28;20188;-86
2022/04/22 13:19:46;;;;;;;8.83;7.83;;;;;;;;;;5054097;28;20195;-86
2022/04/22 13:22:12;;;;;;;8.87;7.97;;;;;;;;;;5073117;28;20191;-88
2022/04/22 13:24:40;;;;;;;9.40;8.20;;;;;;;;;;5070778;28;20188;-87
2022/04/22 13:27:07;;;;;;;8.03;7.13;;;;;;;;;;5072802;28;20616;-88
2022/04/22 13:29:33;;;;;;;18.07;8.73;;;;;;;;;;5071496;28;20214;-85
2022/04/22 13:31:59;;;;;;;10.90;8.47;;;;;;;;;;5072344;28;20198;-85
2022/04/22 13:34:26;;;;;;;13.10;7.23;;;;;;;;;;5053938;28;20629;-85
2022/04/22 13:36:52;;;;;;;10.10;7.63;;;;;;;;;;5056090;28;20176;-84
2022/04/22 13:39:18;;;;;;;12.67;7.03;;;;;;;;;;5071095;28;20190;-84
2022/04/22 13:41:44;;;;;;;13.57;6.63;;;;;;;;;;5073085;28;20194;-85
2022/04/22 13:44:10;;;;;;;7.87;5.80;;;;;;;;;;5071692;28;20653;-85
2022/04/22 13:55:03;;;;;;;7.93;6.13;;;;;;;;;;5027231;28;20191;-85
2022/04/22 13:57:29;;;;;;;9.93;9.00;;;;;;;;;;5072890;28;20187;-84
2022/04/22 13:59:56;;;;;;;11.70;10.73;;;;;;;;;;5072290;28;20188;-85
2022/04/22 14:02:22;;;;;;;11.47;9.53;;;;;;;;;;5070983;28;20183;-85
2022/04/22 14:04:49;;;;;;;7.27;6.50;;;;;;;;;;5053249;28;20533;-84
2022/04/22 14:07:15;;;;;;;12.73;7.60;;;;;;;;;;5068513;28;20528;-83
2022/04/22 14:09:41;;;;;;;7.43;6.83;;;;;;;;;;5071231;28;20637;-84
2022/04/22 14:12:08;;;;;;;7.30;6.60;;;;;;;;;;5049279;28;20190;-85
2022/04/22 14:14:35;;;;;;;6.20;5.57;;;;;;;;;;5056096;28;20177;-84
2022/04/22 14:17:01;;;;;;;6.90;6.27;;;;;;;;;;5056264;28;20183;-87
2022/04/22 14:19:27;;;;;;;6.70;6.03;;;;;;;;;;5053177;28;20734;-86
2022/04/22 14:21:54;;;;;;;7.43;5.77;;;;;;;;;;5054739;28;20185;-85
2022/04/22 14:24:20;;;;;;;6.33;4.90;;;;;;;;;;5053437;28;20220;-84
2022/04/22 14:26:47;;;;;;;7.70;5.40;;;;;;;;;;5070775;28;20190;-85
2022/04/22 14:29:13;;;;;;;5.77;5.27;;;;;;;;;;5054084;28;20683;-84
2022/04/22 14:31:39;;;;;;;5.40;5.00;;;;;;;;;;5057080;28;20190;-85
2022/04/22 14:34:05;;;;;;;6.63;4.90;;;;;;;;;;5049727;28;20180;-84
2022/04/22 14:36:31;;;;;;;6.03;4.50;;;;;;;;;;5053674;28;20186;-84
2022/04/22 14:38:57;;;;;;;4.97;4.40;;;;;;;;;;5055795;28;20184;-85
2022/04/22 14:41:24;;;;;;;5.50;4.93;;;;;;;;;;5060892;28;20187;-86
2022/04/22 14:43:50;;;;;;;5.63;5.10;;;;;;;;;;5054262;28;20185;-84
2022/04/22 14:46:16;;;;;;;5.83;5.33;;;;;;;;;;5059947;28;20185;-84
2022/04/22 14:48:43;;;;;;;6.57;5.97;;;;;;;;;;5055358;28;20584;-85
2022/04/22 14:51:09;;;;;;;6.67;6.07;;;;;;;;;;5058722;28;20657;-85
2022/04/22 14:53:35;;;;;;;9.17;6.37;;;;;;;;;;5058596;28;20211;-83
2022/04/22 14:56:01;;;;;;;6.97;6.33;;;;;;;;;;5056513;28;20180;-85
2022/04/22 14:58:28;;;;;;;7.67;6.97;;;;;;;;;;5053158;28;20181;-83
2022/04/22 15:00:54;;;;;;;9.53;6.80;;;;;;;;;;5053074;28;20195;-84
2022/04/22 15:03:20;;;;;;;7.13;5.80;;;;;;;;;;5076984;28;20483;-84
2022/04/22 15:05:51;;;;;;;7.17;6.57;;;;;;;;;;5069768;28;20184;-84
2022/04/22 15:08:17;;;;;;;7.90;7.20;;;;;;;;;;5054610;28;20614;-84
2022/04/22 15:10:43;;;;;;;9.43;8.13;;;;;;;;;;5071367;28;20203;-82
2022/04/22 15:13:09;;;;;;;8.50;7.67;;;;;;;;;;5069650;28;20185;-82
2022/04/22 15:15:35;;;;;;;8.20;7.50;;;;;;;;;;5053622;28;20165;-83
2022/04/22 15:26:16;;;;;;;8.63;7.83;;;;;;;;;;5068195;28;20226;-82
2022/04/22 15:28:43;;;;;;;9.13;8.23;;;;;;;;;;5072174;28;20239;-83
2022/04/22 15:31:13;;;;;;;10.10;9.15;;;;;;;;;;5056230;28;20446;-83
2022/04/22 15:33:41;;;;;;;10.00;9.07;;;;;;;;;;5069782;28;20177;-82
2022/04/22 15:36:07;;;;;;;9.77;8.88;;;;;;;;;;5053712;28;20388;-83
2022/04/22 15:38:34;;;;;;;9.67;8.87;;;;;;;;;;5056359;28;20677;-83
2022/04/22 15:41:01;;;;;;;9.47;8.67;;;;;;;;;;5054988;28;20697;-82
2022/04/22 15:43:27;;;;;;;9.87;9.00;;;;;;;;;;5076435;28;20164;-85
2022/04/22 15:45:54;;;;;;;9.23;8.27;;;;;;;;;;5058068;28;20275;-85
2022/04/22 15:48:20;;;;;;;11.17;8.77;;;;;;;;;;5056019;28;20219;-83
2022/04/22 15:50:46;;;;;;;9.63;8.73;;;;;;;;;;5055843;28;20195;-82
2022/04/22 15:53:13;;;;;;;22.77;12.53;;;;;;;;;;5058245;28;20298;-83
2022/04/22 15:55:39;;;;;;;29.83;12.67;;;;;;;;;;5056996;28;20184;-84
2022/04/22 15:58:05;;;;;;;10.40;8.70;;;;;;;;;;5075287;28;20176;-84
2022/04/22 16:00:31;;;;;;;10.17;9.20;;;;;;;;;;5059908;28;20187;-84
2022/04/22 16:02:57;;;;;;;11.00;9.93;;;;;;;;;;5055434;28;20546;-82
2022/04/22 16:05:23;;;;;;;9.67;8.57;;;;;;;;;;5060426;28;20180;-84
2022/04/22 16:07:49;;;;;;;10.93;9.93;;;;;;;;;;5058657;28;20239;-85
2022/04/22 16:10:15;;;;;;;10.80;9.23;;;;;;;;;;5061208;28;20733;-84